createdAt,value
2022-11-29T00:00:20.896Z,18.40
2022-11-29T00:01:42.171Z,17.83
2022-11-29T00:03:03.301Z,19.25
2022-11-29T00:04:24.700Z,17.73
2022-11-29T00:05:45.769Z,13.90
2022-11-29T00:07:07.090Z,12.98
2022-11-29T00:08:28.232Z,9.55
2022-11-29T00:09:49.451Z,14.95
2022-11-29T00:11:39.608Z,11.10
2022-11-29T00:13:00.822Z,10.88
2022-11-29T00:14:23.391Z,8.27
2022-11-29T00:15:44.509Z,7.55
2022-11-29T00:17:06.217Z,8.45
2022-11-29T00:18:28.125Z,8.60
2022-11-29T00:19:49.376Z,10.10
2022-11-29T00:21:10.561Z,10.00
2022-11-29T00:22:31.258Z,10.48
2022-11-29T00:23:52.477Z,9.80
2022-11-29T00:25:13.534Z,10.05
2022-11-29T00:26:34.907Z,9.07
2022-11-29T00:27:56.002Z,10.15
2022-11-29T00:29:17.510Z,7.63
2022-11-29T00:30:38.731Z,8.02
2022-11-29T00:32:00.257Z,8.10
2022-11-29T00:33:21.081Z,8.23
2022-11-29T00:34:42.493Z,5.70
2022-11-29T00:36:03.831Z,7.05
2022-11-29T00:37:25.162Z,7.28
2022-11-29T00:38:46.607Z,7.88
2022-11-29T00:40:08.371Z,8.90
2022-11-29T00:41:29.172Z,8.02
2022-11-29T00:42:50.325Z,8.05
2022-11-29T00:44:16.807Z,13.30
2022-11-29T00:45:40.658Z,65.43
2022-11-29T00:47:01.969Z,43.38
2022-11-29T00:48:23.531Z,25.38
2022-11-29T00:49:44.639Z,115.15
2022-11-29T00:51:06.547Z,69.47
2022-11-29T00:52:27.255Z,54.65
2022-11-29T00:53:48.263Z,28.48
2022-11-29T00:55:09.612Z,19.92
2022-11-29T00:56:30.707Z,12.07
2022-11-29T00:57:51.832Z,12.20
2022-11-29T00:59:12.960Z,21.02
2022-11-29T01:00:34.082Z,12.48
2022-11-29T01:01:55.157Z,10.98
2022-11-29T01:03:17.085Z,22.48
2022-11-29T01:04:37.927Z,59.03
2022-11-29T01:06:08.437Z,57.20
2022-11-29T01:07:29.410Z,61.45
2022-11-29T01:08:50.789Z,48.25
2022-11-29T01:10:11.785Z,33.35
2022-11-29T01:11:33.477Z,24.63
2022-11-29T01:12:55.366Z,21.70
2022-11-29T01:14:16.403Z,20.63
2022-11-29T01:15:37.643Z,18.95
2022-11-29T01:16:58.739Z,15.10
2022-11-29T01:18:20.000Z,14.88
2022-11-29T01:19:44.114Z,12.88
2022-11-29T01:21:10.514Z,10.80
2022-11-29T01:22:31.348Z,11.57
2022-11-29T01:23:54.225Z,11.93
2022-11-29T01:25:15.525Z,11.65
2022-11-29T01:26:36.359Z,11.30
2022-11-29T01:27:57.499Z,10.90
2022-11-29T01:29:18.967Z,8.63
2022-11-29T01:30:40.132Z,8.63
2022-11-29T01:32:01.229Z,11.25
2022-11-29T01:33:22.720Z,26.17
2022-11-29T01:34:44.175Z,72.97
2022-11-29T01:36:07.288Z,73.53
2022-11-29T01:37:31.484Z,67.60
2022-11-29T01:38:53.105Z,73.10
2022-11-29T01:40:14.440Z,76.97
2022-11-29T01:41:37.265Z,54.45
2022-11-29T01:42:58.389Z,42.13
2022-11-29T01:44:19.456Z,21.67
2022-11-29T01:45:40.963Z,22.40
2022-11-29T01:47:01.879Z,12.13
2022-11-29T01:48:27.718Z,11.25
2022-11-29T01:49:50.110Z,11.77
2022-11-29T01:51:11.606Z,14.63
2022-11-29T01:52:33.177Z,15.27
2022-11-29T01:53:57.375Z,17.13
2022-11-29T01:55:19.110Z,17.48
2022-11-29T01:56:42.905Z,17.70
2022-11-29T01:58:06.397Z,15.88
2022-11-29T01:59:29.694Z,15.77
2022-11-29T02:00:50.810Z,15.60
2022-11-29T02:02:22.305Z,14.55
2022-11-29T02:03:43.110Z,12.43
2022-11-29T02:05:05.445Z,12.30
2022-11-29T02:06:28.413Z,11.98
2022-11-29T02:07:52.552Z,10.55
2022-11-29T02:09:22.762Z,10.70
2022-11-29T02:11:07.707Z,10.75
2022-11-29T02:12:53.505Z,18.02
2022-11-29T02:14:26.703Z,14.85
2022-11-29T02:16:03.826Z,14.70
2022-11-29T02:17:36.739Z,13.13
2022-11-29T02:19:18.147Z,24.50
2022-11-29T02:20:47.657Z,19.45
2022-11-29T02:22:31.978Z,10.10
2022-11-29T02:24:36.102Z,10.48
2022-11-29T02:26:15.628Z,9.07
2022-11-29T02:27:45.719Z,7.03
2022-11-29T02:29:23.211Z,5.80
2022-11-29T02:30:50.339Z,5.30
2022-11-29T02:32:59.590Z,5.45
2022-11-29T02:34:53.640Z,6.93
2022-11-29T02:36:23.507Z,8.55
2022-11-29T02:39:05.086Z,7.45
2022-11-29T02:40:50.801Z,7.55
2022-11-29T02:42:54.392Z,7.70
2022-11-29T02:44:45.717Z,6.60
2022-11-29T02:46:30.040Z,8.95
2022-11-29T02:48:02.773Z,16.20
2022-11-29T02:49:38.721Z,16.45
2022-11-29T02:51:23.509Z,14.38
2022-11-29T02:52:54.975Z,13.60
2022-11-29T02:54:50.301Z,14.07
2022-11-29T02:56:37.485Z,13.75
2022-11-29T02:58:09.680Z,13.07
2022-11-29T02:59:48.710Z,20.13
2022-11-29T03:01:16.649Z,73.03
2022-11-29T03:02:57.047Z,31.73
2022-11-29T03:04:45.740Z,22.40
2022-11-29T03:06:21.914Z,19.05
2022-11-29T03:08:01.047Z,28.17
2022-11-29T03:09:40.587Z,17.52
2022-11-29T03:11:38.149Z,14.85
2022-11-29T03:13:00.315Z,12.75
2022-11-29T03:14:39.917Z,12.65
2022-11-29T03:16:17.321Z,19.17
2022-11-29T03:18:06.637Z,19.10
2022-11-29T03:19:55.296Z,16.95
2022-11-29T03:21:45.944Z,19.35
2022-11-29T03:23:28.330Z,23.67
2022-11-29T03:25:17.038Z,23.52
2022-11-29T03:27:01.062Z,23.77
2022-11-29T03:28:24.735Z,23.23
2022-11-29T03:29:58.101Z,21.92
2022-11-29T03:31:30.037Z,23.20
2022-11-29T03:33:05.081Z,23.20
2022-11-29T03:34:55.694Z,23.27
2022-11-29T03:36:36.686Z,23.05
2022-11-29T03:38:35.308Z,30.33
2022-11-29T03:40:07.140Z,33.60
2022-11-29T03:41:40.921Z,28.08
2022-11-29T03:43:01.807Z,28.88
2022-11-29T03:44:28.069Z,24.90
2022-11-29T03:46:04.627Z,18.85
2022-11-29T03:47:36.101Z,33.50
2022-11-29T03:49:03.616Z,22.00
2022-11-29T03:50:57.552Z,25.52
2022-11-29T03:52:47.767Z,14.63
2022-11-29T03:54:13.135Z,15.30
2022-11-29T03:55:50.501Z,22.70
2022-11-29T03:57:17.732Z,26.70
2022-11-29T03:58:56.934Z,25.05
2022-11-29T04:00:18.942Z,24.52
2022-11-29T04:02:10.768Z,18.23
2022-11-29T04:03:53.313Z,44.28
2022-11-29T04:05:29.732Z,113.57
2022-11-29T04:07:12.237Z,28.58
2022-11-29T04:09:04.315Z,14.00
2022-11-29T04:10:39.609Z,27.27
2022-11-29T04:12:48.922Z,14.90
2022-11-29T04:14:26.264Z,10.18
2022-11-29T04:16:07.549Z,9.43
2022-11-29T04:17:45.163Z,10.88
2022-11-29T04:19:22.207Z,11.15
2022-11-29T04:21:01.755Z,10.85
2022-11-29T04:22:54.986Z,8.27
2022-11-29T04:24:19.198Z,16.13
2022-11-29T04:26:01.138Z,8.82
2022-11-29T04:27:48.698Z,8.35
2022-11-29T04:29:25.202Z,4.57
2022-11-29T04:31:24.140Z,5.03
2022-11-29T04:33:18.694Z,6.25
2022-11-29T04:35:17.088Z,17.70
2022-11-29T04:37:14.123Z,18.40
2022-11-29T04:38:48.809Z,17.58
2022-11-29T04:40:18.465Z,14.15
2022-11-29T04:42:24.785Z,15.80
2022-11-29T04:44:07.626Z,14.52
2022-11-29T04:46:02.452Z,16.13
2022-11-29T04:47:33.801Z,15.13
2022-11-29T04:49:35.301Z,16.55
2022-11-29T04:51:02.197Z,15.70
2022-11-29T04:52:55.509Z,9.48
2022-11-29T04:54:19.271Z,9.73
2022-11-29T04:55:53.753Z,10.15
2022-11-29T04:57:32.806Z,11.70
2022-11-29T04:59:03.611Z,12.13
2022-11-29T05:00:25.550Z,27.65
2022-11-29T05:02:11.309Z,36.78
2022-11-29T05:03:42.259Z,29.75
2022-11-29T05:05:24.530Z,16.70
2022-11-29T05:07:03.471Z,15.80
2022-11-29T05:08:38.590Z,17.15
2022-11-29T05:10:14.884Z,18.83
2022-11-29T05:11:58.746Z,22.75
2022-11-29T05:13:44.484Z,26.55
2022-11-29T05:15:14.877Z,39.38
2022-11-29T05:16:35.991Z,37.72
2022-11-29T05:18:17.314Z,32.65
2022-11-29T05:19:53.672Z,28.52
2022-11-29T05:21:24.996Z,26.38
2022-11-29T05:23:04.675Z,27.00
2022-11-29T05:24:58.959Z,28.55
2022-11-29T05:26:29.520Z,32.25
2022-11-29T05:28:25.929Z,35.95
2022-11-29T05:30:02.011Z,41.92
2022-11-29T05:31:50.362Z,43.40
2022-11-29T05:33:24.748Z,46.90
2022-11-29T05:34:57.935Z,57.25
2022-11-29T05:36:40.086Z,57.95
2022-11-29T05:38:19.604Z,61.17
2022-11-29T05:39:51.426Z,70.80
2022-11-29T05:41:18.263Z,79.43
2022-11-29T05:43:07.279Z,71.25
2022-11-29T05:44:37.989Z,51.22
2022-11-29T05:46:12.821Z,51.00
2022-11-29T05:47:46.908Z,50.13
2022-11-29T05:49:27.556Z,50.60
2022-11-29T05:50:58.377Z,54.97
2022-11-29T05:52:55.559Z,53.28
2022-11-29T05:54:33.843Z,52.88
2022-11-29T05:56:03.990Z,54.42
2022-11-29T05:57:40.320Z,55.80
2022-11-29T05:59:17.202Z,61.17
2022-11-29T06:00:49.814Z,63.60
2022-11-29T06:02:26.158Z,69.05
2022-11-29T06:04:15.146Z,59.78
2022-11-29T06:05:57.076Z,56.25
2022-11-29T06:07:26.128Z,59.85
2022-11-29T06:08:56.966Z,65.97
2022-11-29T06:10:20.006Z,73.75
2022-11-29T06:11:55.007Z,84.32
2022-11-29T06:13:31.538Z,80.05
2022-11-29T06:14:57.097Z,80.60
2022-11-29T06:16:57.203Z,79.10
2022-11-29T06:18:27.433Z,78.75
2022-11-29T06:20:27.651Z,81.95
2022-11-29T06:22:05.797Z,82.00
2022-11-29T06:23:36.648Z,65.68
2022-11-29T06:25:23.633Z,63.05
2022-11-29T06:26:44.985Z,63.05
2022-11-29T06:28:32.631Z,78.28
2022-11-29T06:30:15.026Z,80.43
2022-11-29T06:31:43.488Z,88.25
2022-11-29T06:33:28.949Z,88.68
2022-11-29T06:35:09.562Z,86.32
2022-11-29T06:37:08.217Z,86.72
2022-11-29T06:38:33.184Z,85.68
2022-11-29T06:39:57.591Z,87.57
2022-11-29T06:41:21.550Z,88.20
2022-11-29T06:42:43.182Z,91.00
2022-11-29T06:44:05.591Z,98.38
2022-11-29T06:45:27.073Z,100.45
2022-11-29T06:47:24.149Z,109.15
2022-11-29T06:48:56.568Z,97.88
2022-11-29T06:50:32.860Z,102.57
2022-11-29T06:52:18.476Z,99.35
2022-11-29T06:53:54.332Z,89.68
2022-11-29T06:55:22.643Z,68.53
2022-11-29T06:56:55.772Z,91.30
2022-11-29T06:58:34.466Z,88.55
2022-11-29T07:00:12.910Z,77.53
2022-11-29T07:01:59.722Z,70.20
2022-11-29T07:03:59.137Z,60.30
2022-11-29T07:05:30.550Z,61.05
2022-11-29T07:06:51.710Z,62.42
2022-11-29T07:08:17.332Z,59.67
2022-11-29T07:09:38.497Z,59.03
2022-11-29T07:11:00.601Z,62.63
2022-11-29T07:12:21.800Z,63.03
2022-11-29T07:13:42.778Z,57.03
2022-11-29T07:15:05.510Z,53.58
2022-11-29T07:16:34.024Z,45.17
2022-11-29T07:18:13.442Z,47.17
2022-11-29T07:19:50.905Z,51.20
2022-11-29T07:21:36.734Z,52.35
2022-11-29T07:23:10.977Z,61.28
2022-11-29T07:24:49.846Z,67.00
2022-11-29T07:26:38.487Z,79.57
2022-11-29T07:28:17.375Z,79.63
2022-11-29T07:30:14.173Z,83.15
2022-11-29T07:32:03.543Z,82.68
2022-11-29T07:33:54.792Z,79.10
2022-11-29T07:35:23.087Z,78.80
2022-11-29T07:37:00.538Z,80.13
2022-11-29T07:38:58.311Z,83.85
2022-11-29T07:40:49.825Z,85.75
2022-11-29T07:42:30.426Z,91.88
2022-11-29T07:44:30.727Z,103.15
2022-11-29T07:45:51.810Z,106.22
2022-11-29T07:47:15.597Z,82.82
2022-11-29T07:48:36.761Z,68.40
2022-11-29T07:49:57.857Z,66.65
2022-11-29T07:51:19.267Z,66.90
2022-11-29T07:52:40.477Z,59.55
2022-11-29T07:54:01.718Z,43.72
2022-11-29T07:55:26.030Z,37.47
2022-11-29T07:56:47.510Z,28.63
2022-11-29T07:58:12.830Z,23.63
2022-11-29T07:59:34.035Z,20.67
2022-11-29T08:00:54.931Z,20.38
2022-11-29T08:02:26.822Z,18.77
2022-11-29T08:03:48.193Z,22.10
2022-11-29T08:05:09.881Z,23.73
2022-11-29T08:06:31.121Z,20.38
2022-11-29T08:07:53.647Z,23.40
2022-11-29T08:09:14.849Z,33.75
2022-11-29T08:10:36.101Z,32.20
2022-11-29T08:11:57.169Z,34.78
2022-11-29T08:13:20.824Z,62.97
2022-11-29T08:14:41.916Z,31.45
2022-11-29T08:16:03.517Z,79.35
2022-11-29T08:17:25.882Z,63.05
2022-11-29T08:18:46.828Z,26.52
2022-11-29T08:20:09.726Z,51.50
2022-11-29T08:21:30.774Z,43.20
2022-11-29T08:22:57.107Z,47.45
2022-11-29T08:24:18.159Z,51.53
2022-11-29T08:25:39.837Z,41.45
2022-11-29T08:27:00.975Z,41.13
2022-11-29T08:28:22.096Z,40.45
2022-11-29T08:29:43.392Z,42.58
2022-11-29T08:31:06.930Z,43.97
2022-11-29T08:32:28.457Z,54.58
2022-11-29T08:33:49.472Z,58.83
2022-11-29T08:35:10.612Z,80.38
2022-11-29T08:36:31.880Z,89.40
2022-11-29T08:37:54.125Z,81.15
2022-11-29T08:39:15.219Z,74.80
2022-11-29T08:40:36.521Z,68.57
2022-11-29T08:41:57.448Z,68.22
2022-11-29T08:43:18.676Z,67.32
2022-11-29T08:44:39.950Z,71.05
2022-11-29T08:46:01.429Z,73.93
2022-11-29T08:47:37.568Z,72.65
2022-11-29T08:48:58.690Z,74.57
2022-11-29T08:50:19.752Z,76.38
2022-11-29T08:51:40.723Z,81.85
2022-11-29T08:53:20.322Z,87.97
2022-11-29T08:54:41.409Z,90.05
2022-11-29T08:56:17.062Z,94.40
2022-11-29T08:57:43.914Z,77.30
2022-11-29T08:59:05.781Z,102.00
2022-11-29T09:00:26.820Z,97.82
2022-11-29T09:01:48.088Z,107.97
2022-11-29T09:03:27.957Z,93.13
2022-11-29T09:04:48.873Z,82.25
2022-11-29T09:06:13.000Z,55.08
2022-11-29T09:07:34.395Z,51.05
2022-11-29T09:08:56.534Z,25.83
2022-11-29T09:10:17.528Z,34.28
2022-11-29T09:11:38.980Z,45.22
2022-11-29T09:13:00.249Z,48.95
2022-11-29T09:14:22.869Z,55.08
2022-11-29T09:15:43.974Z,71.70
2022-11-29T09:17:05.060Z,113.28
2022-11-29T09:19:50.225Z,93.22
2022-11-29T09:21:13.597Z,71.25
2022-11-29T09:22:34.377Z,68.55
2022-11-29T09:23:59.324Z,69.90
2022-11-29T09:25:20.463Z,62.63
2022-11-29T09:26:42.290Z,61.60
2022-11-29T09:28:03.580Z,49.38
2022-11-29T09:29:24.545Z,55.65
2022-11-29T09:30:45.847Z,65.82
2022-11-29T09:32:07.134Z,67.63
2022-11-29T09:33:28.379Z,66.25
2022-11-29T09:34:49.177Z,69.40
2022-11-29T09:36:11.647Z,68.47
2022-11-29T09:37:33.269Z,72.82
2022-11-29T09:38:54.516Z,79.93
2022-11-29T09:40:19.772Z,86.28
2022-11-29T09:42:01.145Z,79.68
2022-11-29T09:43:36.930Z,135.38
2022-11-29T09:45:09.584Z,63.90
2022-11-29T09:46:33.533Z,52.22
2022-11-29T09:48:03.642Z,54.65
2022-11-29T09:49:46.262Z,57.00
2022-11-29T09:51:28.139Z,55.75
2022-11-29T09:53:18.714Z,58.80
2022-11-29T09:54:51.884Z,58.03
2022-11-29T09:56:23.972Z,82.43
2022-11-29T09:57:46.116Z,59.83
2022-11-29T09:59:17.214Z,54.50
2022-11-29T10:00:47.338Z,85.03
2022-11-29T10:02:21.810Z,95.05
2022-11-29T10:03:48.762Z,114.15
2022-11-29T10:05:25.197Z,89.93
2022-11-29T10:07:06.713Z,67.32
2022-11-29T10:08:42.059Z,60.65
2022-11-29T10:10:11.269Z,62.78
2022-11-29T10:12:04.258Z,54.60
2022-11-29T10:13:26.617Z,38.35
2022-11-29T10:14:58.419Z,43.67
2022-11-29T10:17:04.440Z,51.22
2022-11-29T10:18:27.059Z,47.80
2022-11-29T10:19:53.086Z,41.00
2022-11-29T10:21:21.088Z,51.17
2022-11-29T10:23:09.471Z,57.92
2022-11-29T10:24:33.058Z,53.72
2022-11-29T10:25:56.633Z,50.13
2022-11-29T10:27:23.961Z,45.47
2022-11-29T10:28:47.737Z,41.95
2022-11-29T10:30:14.602Z,42.65
2022-11-29T10:31:39.271Z,47.85
2022-11-29T10:33:00.989Z,70.05
2022-11-29T10:34:25.533Z,64.32
2022-11-29T10:35:48.528Z,35.60
2022-11-29T10:37:32.765Z,27.10
2022-11-29T10:38:59.685Z,33.15
2022-11-29T10:40:32.306Z,25.98
2022-11-29T10:42:01.461Z,26.42
2022-11-29T10:43:23.992Z,31.77
2022-11-29T10:44:45.132Z,31.27
2022-11-29T10:46:15.572Z,31.23
2022-11-29T10:47:36.947Z,24.00
2022-11-29T10:49:04.925Z,26.40
2022-11-29T10:50:28.598Z,24.55
2022-11-29T10:51:49.709Z,30.20
2022-11-29T10:53:14.943Z,28.73
2022-11-29T10:54:42.549Z,22.80
2022-11-29T10:56:29.354Z,20.10
2022-11-29T10:58:10.569Z,23.73
2022-11-29T10:59:33.201Z,32.42
2022-11-29T11:01:15.525Z,29.13
2022-11-29T11:02:37.555Z,29.27
2022-11-29T11:04:00.613Z,23.23
2022-11-29T11:05:26.602Z,21.40
2022-11-29T11:06:56.955Z,33.72
2022-11-29T11:08:18.324Z,33.63
2022-11-29T11:09:48.717Z,22.45
2022-11-29T11:11:12.304Z,22.55
2022-11-29T11:12:34.719Z,28.10
2022-11-29T11:14:00.298Z,23.63
2022-11-29T11:15:24.109Z,20.38
2022-11-29T11:16:45.341Z,25.52
2022-11-29T11:18:21.210Z,21.20
2022-11-29T11:19:42.515Z,24.55
2022-11-29T11:21:04.762Z,23.83
2022-11-29T11:22:27.102Z,30.35
2022-11-29T11:23:54.640Z,38.42
2022-11-29T11:25:35.232Z,23.48
2022-11-29T11:26:57.135Z,30.33
2022-11-29T11:28:22.328Z,103.68
2022-11-29T11:29:44.613Z,35.17
2022-11-29T11:31:08.795Z,32.20
2022-11-29T11:32:30.142Z,26.00
2022-11-29T11:33:51.429Z,21.95
2022-11-29T11:35:24.380Z,33.13
2022-11-29T11:36:45.501Z,37.55
2022-11-29T11:38:16.076Z,41.63
2022-11-29T11:39:37.631Z,39.10
2022-11-29T11:41:18.259Z,26.33
2022-11-29T11:42:40.623Z,24.52
2022-11-29T11:44:04.517Z,15.27
2022-11-29T11:45:35.463Z,14.13
2022-11-29T11:46:56.840Z,16.33
2022-11-29T11:48:19.260Z,12.77
2022-11-29T11:49:53.565Z,14.20
2022-11-29T11:51:24.528Z,15.65
2022-11-29T11:52:52.480Z,16.30
2022-11-29T11:54:15.431Z,13.50
2022-11-29T11:55:36.390Z,16.45
2022-11-29T11:56:57.645Z,19.15
2022-11-29T11:58:22.878Z,19.83
2022-11-29T11:59:48.865Z,19.90
2022-11-29T12:01:12.702Z,23.00
2022-11-29T12:02:40.387Z,26.40
2022-11-29T12:04:27.454Z,24.85
2022-11-29T12:05:52.800Z,35.25
2022-11-29T12:07:38.750Z,24.63
2022-11-29T12:09:19.475Z,17.17
2022-11-29T12:10:41.319Z,32.33
2022-11-29T12:12:20.388Z,32.83
2022-11-29T12:13:49.075Z,38.83
2022-11-29T12:15:28.738Z,46.13
2022-11-29T12:16:55.915Z,54.97
2022-11-29T12:18:44.516Z,46.13
2022-11-29T12:20:28.612Z,27.25
2022-11-29T12:21:55.895Z,22.60
2022-11-29T12:23:16.811Z,23.25
2022-11-29T12:25:00.016Z,19.90
2022-11-29T12:28:20.072Z,16.75
2022-11-29T12:29:41.534Z,17.25
2022-11-29T12:31:37.018Z,13.68
2022-11-29T12:33:17.827Z,13.80
2022-11-29T12:35:09.125Z,18.58
2022-11-29T12:36:35.866Z,20.65
2022-11-29T12:38:12.470Z,25.08
2022-11-29T12:39:42.456Z,25.95
2022-11-29T12:41:52.435Z,26.55
2022-11-29T12:43:23.891Z,20.70
2022-11-29T12:45:01.823Z,22.50
2022-11-29T12:46:26.294Z,25.92
2022-11-29T12:48:06.086Z,22.85
2022-11-29T12:51:02.158Z,24.08
2022-11-29T12:52:58.131Z,15.02
2022-11-29T12:54:28.225Z,24.83
2022-11-29T12:56:07.752Z,20.00
2022-11-29T12:57:35.307Z,14.45
2022-11-29T12:59:23.767Z,45.25
2022-11-29T13:00:51.456Z,43.58
2022-11-29T13:02:22.255Z,24.23
2022-11-29T13:04:06.565Z,27.13
2022-11-29T13:05:30.482Z,33.88
2022-11-29T13:07:17.387Z,32.10
2022-11-29T13:09:06.082Z,27.80
2022-11-29T13:10:32.690Z,26.95
2022-11-29T13:12:43.338Z,24.38
2022-11-29T13:14:44.372Z,21.98
2022-11-29T13:18:16.956Z,32.28
2022-11-29T13:19:55.532Z,32.83
2022-11-29T13:21:24.346Z,33.67
2022-11-29T13:22:59.981Z,35.35
2022-11-29T13:24:36.067Z,42.97
2022-11-29T13:26:05.870Z,40.15
2022-11-29T13:27:32.739Z,39.58
2022-11-29T13:28:54.526Z,38.60
2022-11-29T13:30:16.322Z,32.38
2022-11-29T13:31:39.161Z,36.78
2022-11-29T13:33:17.659Z,40.83
2022-11-29T13:34:47.441Z,59.28
2022-11-29T13:36:18.964Z,59.95
2022-11-29T13:37:51.983Z,49.13
2022-11-29T13:39:34.265Z,54.65
2022-11-29T13:41:04.802Z,62.78
2022-11-29T13:42:37.235Z,38.67
2022-11-29T13:44:32.462Z,35.50
2022-11-29T13:46:28.998Z,37.97
2022-11-29T13:47:53.367Z,34.22
2022-11-29T13:49:52.918Z,31.17
2022-11-29T13:51:24.258Z,28.20
2022-11-29T13:52:47.300Z,25.75
2022-11-29T13:54:32.858Z,29.73
2022-11-29T13:56:01.470Z,29.17
2022-11-29T13:57:22.386Z,32.13
2022-11-29T13:58:43.371Z,41.00
2022-11-29T14:00:05.452Z,33.25
2022-11-29T14:01:26.878Z,34.17
2022-11-29T14:02:48.157Z,33.92
2022-11-29T14:04:27.589Z,49.40
2022-11-29T14:05:51.054Z,63.47
2022-11-29T14:07:21.175Z,57.17
2022-11-29T14:10:38.577Z,47.40
2022-11-29T14:12:36.792Z,37.13
2022-11-29T14:14:15.820Z,32.00
2022-11-29T14:15:37.363Z,30.15
2022-11-29T14:17:04.297Z,30.98
2022-11-29T14:18:37.220Z,28.40
2022-11-29T14:20:23.107Z,33.47
2022-11-29T14:21:59.067Z,29.27
2022-11-29T14:23:40.538Z,29.58
2022-11-29T14:25:49.133Z,44.08
2022-11-29T14:28:33.049Z,35.67
2022-11-29T14:29:55.240Z,40.95
2022-11-29T14:31:49.678Z,33.05
2022-11-29T14:33:13.995Z,36.47
2022-11-29T14:34:41.793Z,33.05
2022-11-29T14:36:14.870Z,38.80
2022-11-29T14:37:45.222Z,38.60
2022-11-29T14:39:41.185Z,28.52
2022-11-29T14:41:41.215Z,70.75
2022-11-29T14:43:14.283Z,64.20
2022-11-29T14:44:44.922Z,55.10
2022-11-29T14:46:29.002Z,68.97
2022-11-29T14:47:50.846Z,57.42
2022-11-29T14:49:23.801Z,86.55
2022-11-29T14:50:44.773Z,56.45
2022-11-29T14:52:14.854Z,41.80
2022-11-29T14:53:38.048Z,37.30
2022-11-29T14:55:21.177Z,49.67
2022-11-29T14:56:45.135Z,51.72
2022-11-29T14:58:17.230Z,45.33
2022-11-29T14:59:47.281Z,48.00
2022-11-29T15:01:11.002Z,63.33
2022-11-29T15:03:11.185Z,49.08
2022-11-29T15:06:25.124Z,48.75
2022-11-29T15:07:54.606Z,46.08
2022-11-29T15:09:19.648Z,31.98
2022-11-29T15:10:45.018Z,24.55
2022-11-29T15:12:12.649Z,32.55
2022-11-29T15:13:36.399Z,45.25
2022-11-29T15:15:15.995Z,43.33
2022-11-29T15:16:55.122Z,48.90
2022-11-29T15:18:33.442Z,40.67
2022-11-29T15:20:16.168Z,36.90
2022-11-29T15:21:46.780Z,40.75
2022-11-29T15:23:15.655Z,35.42
2022-11-29T15:25:13.997Z,22.98
2022-11-29T15:26:34.970Z,32.78
2022-11-29T15:27:58.501Z,54.38
2022-11-29T15:29:21.445Z,52.35
2022-11-29T15:30:42.700Z,49.28
2022-11-29T15:32:05.989Z,48.20
2022-11-29T15:33:28.444Z,49.30
2022-11-29T15:34:53.373Z,52.63
2022-11-29T15:36:20.546Z,42.60
2022-11-29T15:37:44.662Z,45.97
2022-11-29T15:39:05.892Z,48.70
2022-11-29T15:40:35.644Z,50.88
2022-11-29T15:42:08.386Z,54.53
2022-11-29T15:43:37.808Z,47.95
2022-11-29T15:46:23.808Z,93.45
2022-11-29T15:47:45.440Z,190.65
2022-11-29T15:49:26.503Z,191.30
2022-11-29T15:51:00.832Z,178.05
2022-11-29T15:52:32.189Z,131.52
2022-11-29T15:54:11.640Z,189.52
2022-11-29T15:55:33.777Z,294.13
2022-11-29T15:57:06.882Z,245.32
2022-11-29T15:58:31.394Z,250.70
2022-11-29T15:59:56.909Z,349.33
2022-11-29T16:01:21.187Z,376.92
2022-11-29T16:02:50.706Z,441.27
2022-11-29T16:04:20.210Z,186.27
2022-11-29T16:05:41.113Z,90.45
2022-11-29T16:07:04.570Z,380.77
2022-11-29T16:08:29.492Z,451.13
2022-11-29T16:10:04.154Z,220.48
2022-11-29T16:11:28.887Z,146.23
2022-11-29T16:13:04.036Z,120.95
2022-11-29T16:14:28.094Z,70.32
2022-11-29T16:15:49.487Z,56.30
2022-11-29T16:17:11.337Z,72.38
2022-11-29T16:18:32.585Z,73.72
2022-11-29T16:20:21.146Z,72.00
2022-11-29T16:21:44.369Z,83.57
2022-11-29T16:23:08.220Z,94.85
2022-11-29T16:24:29.676Z,95.95
2022-11-29T16:26:11.954Z,83.53
2022-11-29T16:27:35.308Z,85.93
2022-11-29T16:28:58.007Z,91.57
2022-11-29T16:30:24.728Z,111.63
2022-11-29T16:31:45.819Z,99.80
2022-11-29T16:33:06.933Z,113.97
2022-11-29T16:34:33.027Z,109.95
2022-11-29T16:36:19.165Z,117.20
2022-11-29T16:37:44.989Z,133.52
2022-11-29T16:39:16.168Z,167.25
2022-11-29T16:40:37.155Z,153.93
2022-11-29T16:42:08.508Z,152.93
2022-11-29T16:43:59.594Z,147.45
2022-11-29T16:45:41.053Z,135.93
2022-11-29T16:47:15.898Z,146.90
2022-11-29T16:48:40.511Z,100.00
2022-11-29T16:50:02.378Z,60.97
2022-11-29T16:51:50.297Z,73.18
2022-11-29T16:53:37.481Z,81.95
2022-11-29T16:54:59.309Z,84.38
2022-11-29T16:56:23.308Z,66.88
2022-11-29T16:57:46.025Z,50.97
2022-11-29T16:59:17.223Z,52.33
2022-11-29T17:00:47.713Z,52.15
2022-11-29T17:02:12.838Z,42.35
2022-11-29T17:03:34.605Z,35.25
2022-11-29T17:04:56.656Z,31.90
2022-11-29T17:06:24.135Z,33.22
2022-11-29T17:07:45.447Z,28.73
2022-11-29T17:09:06.546Z,34.55
2022-11-29T17:10:28.973Z,32.75
2022-11-29T17:11:50.014Z,34.83
2022-11-29T17:13:11.857Z,33.13
2022-11-29T17:14:33.454Z,36.75
2022-11-29T17:15:54.789Z,35.97
2022-11-29T17:17:17.706Z,42.88
2022-11-29T17:18:41.030Z,41.78
2022-11-29T17:20:02.216Z,41.35
2022-11-29T17:21:25.987Z,38.58
2022-11-29T17:22:46.969Z,37.13
2022-11-29T17:24:12.921Z,39.45
2022-11-29T17:25:33.845Z,40.15
2022-11-29T17:26:55.564Z,45.45
2022-11-29T17:28:16.578Z,40.88
2022-11-29T17:29:37.747Z,39.45
2022-11-29T17:30:58.786Z,39.00
2022-11-29T17:32:26.289Z,55.58
2022-11-29T17:33:48.358Z,68.80
2022-11-29T17:35:09.459Z,77.90
2022-11-29T17:36:30.745Z,92.53
2022-11-29T17:37:52.469Z,92.45
2022-11-29T17:39:15.581Z,82.38
2022-11-29T17:40:38.629Z,90.70
2022-11-29T17:42:00.160Z,87.07
2022-11-29T17:43:21.293Z,89.47
2022-11-29T17:44:42.303Z,86.65
2022-11-29T17:46:09.042Z,81.13
2022-11-29T17:47:30.260Z,84.00
2022-11-29T17:48:52.308Z,82.28
2022-11-29T17:50:13.113Z,104.32
2022-11-29T17:51:54.012Z,90.43
2022-11-29T17:53:15.621Z,83.13
2022-11-29T17:54:36.934Z,79.03
2022-11-29T17:56:05.858Z,83.93
2022-11-29T17:57:27.298Z,82.40
2022-11-29T17:58:56.290Z,68.95
2022-11-29T18:00:18.246Z,61.25
2022-11-29T18:01:45.027Z,61.42
2022-11-29T18:03:05.961Z,75.97
2022-11-29T18:04:29.629Z,84.93
2022-11-29T18:05:51.524Z,92.22
2022-11-29T18:07:14.915Z,80.85
2022-11-29T18:08:41.323Z,90.65
2022-11-29T18:10:02.373Z,88.32
2022-11-29T18:11:29.999Z,92.28
2022-11-29T18:12:51.030Z,85.85
2022-11-29T18:14:13.821Z,90.85
2022-11-29T18:15:34.948Z,76.00
2022-11-29T18:16:56.532Z,65.82
2022-11-29T18:18:17.530Z,75.10
2022-11-29T18:19:38.779Z,74.88
2022-11-29T18:21:00.915Z,86.55
2022-11-29T18:22:21.987Z,51.85
2022-11-29T18:23:43.547Z,47.58
2022-11-29T18:25:30.552Z,40.30
2022-11-29T18:26:55.373Z,41.35
2022-11-29T18:28:24.240Z,40.28
2022-11-29T18:29:49.681Z,51.67
2022-11-29T18:31:30.113Z,51.78
2022-11-29T18:32:53.770Z,130.35
2022-11-29T18:34:20.796Z,73.18
2022-11-29T18:35:44.375Z,45.25
2022-11-29T18:37:15.319Z,39.83
2022-11-29T18:38:44.912Z,35.10
2022-11-29T18:40:06.999Z,33.10
2022-11-29T18:41:30.559Z,31.50
2022-11-29T18:42:51.565Z,34.47
2022-11-29T18:44:15.614Z,38.10
2022-11-29T18:45:37.837Z,46.20
2022-11-29T18:46:59.351Z,46.03
2022-11-29T18:48:20.266Z,46.58
2022-11-29T18:49:41.557Z,45.80
2022-11-29T18:51:05.202Z,48.22
2022-11-29T18:52:26.580Z,37.33
2022-11-29T18:53:47.710Z,37.78
2022-11-29T18:55:08.625Z,55.58
2022-11-29T18:56:31.647Z,60.00
2022-11-29T18:57:53.981Z,51.22
2022-11-29T18:59:17.458Z,48.40
2022-11-29T19:00:39.274Z,66.15
2022-11-29T19:02:00.089Z,55.70
2022-11-29T19:03:21.392Z,54.97
2022-11-29T19:04:42.477Z,51.65
2022-11-29T19:06:06.834Z,52.53
2022-11-29T19:07:29.399Z,46.88
2022-11-29T19:08:52.170Z,53.45
2022-11-29T19:10:13.124Z,52.85
2022-11-29T19:11:34.992Z,48.03
2022-11-29T19:12:55.920Z,50.42
2022-11-29T19:14:18.089Z,64.90
2022-11-29T19:15:39.110Z,77.05
2022-11-29T19:17:00.232Z,74.00
2022-11-29T19:18:21.707Z,68.68
2022-11-29T19:19:43.241Z,64.30
2022-11-29T19:21:06.050Z,68.70
2022-11-29T19:22:27.105Z,61.83
2022-11-29T19:23:53.501Z,58.50
2022-11-29T19:25:14.877Z,52.78
2022-11-29T19:26:36.250Z,51.63
2022-11-29T19:27:57.209Z,73.65
2022-11-29T19:29:18.585Z,78.60
2022-11-29T19:30:39.853Z,77.00
2022-11-29T19:32:00.906Z,106.70
2022-11-29T19:33:22.146Z,92.13
2022-11-29T19:34:43.181Z,91.28
2022-11-29T19:36:11.222Z,57.33